createdAt,value
2022-07-29T00:02:27.170Z,27.01
2022-07-29T00:04:54.295Z,27.27
2022-07-29T00:07:21.407Z,27.32
2022-07-29T00:09:52.102Z,27.48
2022-07-29T00:12:25.431Z,27.34
2022-07-29T00:14:54.764Z,26.74
2022-07-29T00:17:21.793Z,27.01
2022-07-29T00:19:48.771Z,26.56
2022-07-29T00:22:15.788Z,27.00
2022-07-29T00:24:42.709Z,26.88
2022-07-29T00:27:09.633Z,27.45
2022-07-29T00:29:36.535Z,27.21
2022-07-29T00:32:04.113Z,27.05
2022-07-29T00:34:51.326Z,27.39
2022-07-29T00:37:18.337Z,27.43
2022-07-29T00:39:45.302Z,27.53
2022-07-29T00:42:12.291Z,27.68
2022-07-29T00:44:40.683Z,27.65
2022-07-29T00:47:08.473Z,27.14
2022-07-29T00:49:35.868Z,26.85
2022-07-29T00:52:06.705Z,26.94
2022-07-29T00:54:35.262Z,26.92
2022-07-29T00:57:04.507Z,27.49
2022-07-29T00:59:35.199Z,27.47
2022-07-29T01:02:03.902Z,27.56
2022-07-29T01:04:32.316Z,27.12
2022-07-29T01:06:59.662Z,27.00
2022-07-29T01:09:34.315Z,26.86
2022-07-29T01:12:15.206Z,26.61
2022-07-29T01:14:42.548Z,26.65
2022-07-29T01:17:33.225Z,26.80
2022-07-29T01:20:14.120Z,26.63
2022-07-29T01:23:21.730Z,26.43
2022-07-29T01:26:12.765Z,26.85
2022-07-29T01:28:47.667Z,26.99
2022-07-29T01:31:58.686Z,27.52
2022-07-29T01:34:45.244Z,27.07
2022-07-29T01:37:27.496Z,27.72
2022-07-29T01:39:57.336Z,27.05
2022-07-29T01:42:44.290Z,27.23
2022-07-29T01:45:16.703Z,27.02
2022-07-29T01:47:50.607Z,27.23
2022-07-29T01:50:19.025Z,27.20
2022-07-29T01:53:00.648Z,27.05
2022-07-29T01:55:31.179Z,26.65
2022-07-29T01:57:59.014Z,26.70
2022-07-29T02:00:26.793Z,26.49
2022-07-29T02:02:54.326Z,26.19
2022-07-29T02:05:23.421Z,26.26
2022-07-29T02:07:51.702Z,26.20
2022-07-29T02:10:21.401Z,26.22
2022-07-29T02:12:55.591Z,26.73
2022-07-29T02:15:24.269Z,26.98
2022-07-29T02:17:58.150Z,27.44
2022-07-29T02:20:26.773Z,27.37
2022-07-29T02:22:54.270Z,27.12
2022-07-29T02:25:22.630Z,26.91
2022-07-29T02:27:52.145Z,26.80
2022-07-29T02:30:19.703Z,26.25
2022-07-29T02:32:48.058Z,26.53
2022-07-29T02:35:16.618Z,26.86
2022-07-29T02:37:44.867Z,27.03
2022-07-29T02:40:16.730Z,26.48
2022-07-29T02:42:45.525Z,26.21
2022-07-29T02:45:12.468Z,26.43
2022-07-29T02:47:44.733Z,26.14
2022-07-29T02:50:22.802Z,26.84
2022-07-29T02:52:56.541Z,26.89
2022-07-29T02:55:35.816Z,26.62
2022-07-29T02:58:07.357Z,26.93
2022-07-29T03:00:38.256Z,27.00
2022-07-29T03:03:09.070Z,26.30
2022-07-29T03:05:36.592Z,25.75
2022-07-29T03:08:07.243Z,25.02
2022-07-29T03:10:34.650Z,25.86
2022-07-29T03:13:01.997Z,26.76
2022-07-29T03:15:29.120Z,26.76
2022-07-29T03:17:56.801Z,26.12
2022-07-29T03:20:23.876Z,26.46
2022-07-29T03:22:51.137Z,26.36
2022-07-29T03:25:20.237Z,26.12
2022-07-29T03:27:48.171Z,26.16
2022-07-29T03:30:21.895Z,26.76
2022-07-29T03:32:50.029Z,26.97
2022-07-29T03:35:20.576Z,25.54
2022-07-29T03:37:47.704Z,25.54
2022-07-29T03:40:25.706Z,26.10
2022-07-29T03:42:53.307Z,26.41
2022-07-29T03:45:20.438Z,26.31
2022-07-29T03:47:52.988Z,26.35
2022-07-29T03:50:23.315Z,26.29
2022-07-29T03:52:50.718Z,26.61
2022-07-29T03:55:17.931Z,26.07
2022-07-29T03:57:45.905Z,25.98
2022-07-29T04:02:40.600Z,23.98
2022-07-29T04:05:13.492Z,24.07
2022-07-29T04:07:41.159Z,25.11
2022-07-29T04:10:09.043Z,26.51
2022-07-29T04:12:36.363Z,25.89
2022-07-29T04:15:05.115Z,26.35
2022-07-29T04:17:32.237Z,26.92
2022-07-29T04:19:59.142Z,27.38
2022-07-29T04:22:26.117Z,27.80
2022-07-29T04:24:54.397Z,27.38
2022-07-29T04:27:21.400Z,28.02
2022-07-29T04:29:55.882Z,28.54
2022-07-29T04:32:25.158Z,29.09
2022-07-29T04:34:52.435Z,29.21
2022-07-29T04:37:19.717Z,29.44
2022-07-29T04:39:46.643Z,29.16
2022-07-29T04:42:13.560Z,27.87
2022-07-29T04:44:43.147Z,28.95
2022-07-29T04:47:10.543Z,28.35
2022-07-29T04:49:40.551Z,27.06
2022-07-29T04:52:07.946Z,27.78
2022-07-29T04:54:34.981Z,28.52
2022-07-29T04:57:01.927Z,27.36
2022-07-29T04:59:28.899Z,28.31
2022-07-29T05:01:55.850Z,27.90
2022-07-29T05:04:22.891Z,28.51
2022-07-29T05:06:50.066Z,30.14
2022-07-29T05:09:17.119Z,31.90
2022-07-29T05:11:44.077Z,33.09
2022-07-29T05:14:11.067Z,34.15
2022-07-29T05:16:37.991Z,34.21
2022-07-29T05:19:04.925Z,33.44
2022-07-29T05:21:31.834Z,30.23
2022-07-29T05:23:58.728Z,29.79
2022-07-29T05:26:25.719Z,29.26
2022-07-29T05:28:52.724Z,31.33
2022-07-29T05:31:19.761Z,30.87
2022-07-29T05:33:46.883Z,29.54
2022-07-29T05:36:13.818Z,28.50
2022-07-29T05:38:40.732Z,28.63
2022-07-29T05:41:07.934Z,29.39
2022-07-29T05:43:34.848Z,30.13
2022-07-29T05:46:01.950Z,31.17
2022-07-29T05:48:28.965Z,28.82
2022-07-29T05:50:56.082Z,29.75
2022-07-29T05:53:23.530Z,30.23
2022-07-29T05:55:53.054Z,29.98
2022-07-29T05:58:20.076Z,29.82
2022-07-29T06:00:47.121Z,29.69
2022-07-29T06:03:14.190Z,29.57
2022-07-29T06:05:41.250Z,30.18
2022-07-29T06:08:08.708Z,28.85
2022-07-29T06:10:39.321Z,28.10
2022-07-29T06:13:06.485Z,29.74
2022-07-29T06:15:33.796Z,29.17
2022-07-29T06:18:01.568Z,30.20
2022-07-29T06:20:32.673Z,30.48
2022-07-29T06:23:00.456Z,29.93
2022-07-29T06:25:36.941Z,29.46
2022-07-29T06:28:04.458Z,29.86
2022-07-29T06:30:31.479Z,30.51
2022-07-29T06:32:58.438Z,31.53
2022-07-29T06:35:38.867Z,30.92
2022-07-29T06:38:30.682Z,30.00
2022-07-29T06:41:02.231Z,29.14
2022-07-29T06:43:32.715Z,30.35
2022-07-29T06:46:02.517Z,29.83
2022-07-29T06:48:30.139Z,30.91
2022-07-29T06:50:57.115Z,31.81
2022-07-29T06:53:24.481Z,31.01
2022-07-29T06:55:51.985Z,31.77
2022-07-29T06:58:21.476Z,32.21
2022-07-29T07:00:49.304Z,32.85
2022-07-29T07:03:17.539Z,31.89
2022-07-29T07:05:45.370Z,32.48
2022-07-29T07:08:12.986Z,32.89
2022-07-29T07:10:40.354Z,33.65
2022-07-29T07:13:07.314Z,32.57
2022-07-29T07:15:39.693Z,33.28
2022-07-29T07:18:16.640Z,32.91
2022-07-29T07:20:44.339Z,31.52
2022-07-29T07:23:12.129Z,33.67
2022-07-29T07:25:39.057Z,33.92
2022-07-29T07:28:05.995Z,34.41
2022-07-29T07:30:33.317Z,33.84
2022-07-29T07:33:01.225Z,35.43
2022-07-29T07:35:28.931Z,34.67
2022-07-29T07:37:57.035Z,33.99
2022-07-29T07:40:24.311Z,33.36
2022-07-29T07:42:51.386Z,34.90
2022-07-29T07:45:19.590Z,35.40
2022-07-29T07:47:48.239Z,36.01
2022-07-29T07:50:18.720Z,36.67
2022-07-29T07:52:58.942Z,34.77
2022-07-29T07:55:26.995Z,35.75
2022-07-29T07:57:54.830Z,37.07
2022-07-29T08:00:23.020Z,36.92
2022-07-29T08:02:51.450Z,35.88
2022-07-29T08:05:19.259Z,36.08
2022-07-29T08:07:47.292Z,35.23
2022-07-29T08:10:39.232Z,35.62
2022-07-29T08:13:10.177Z,35.10
2022-07-29T08:15:37.279Z,35.21
2022-07-29T08:18:08.477Z,34.77
2022-07-29T08:20:36.856Z,35.60
2022-07-29T08:23:07.754Z,35.51
2022-07-29T08:25:34.753Z,35.59
2022-07-29T08:28:06.002Z,35.69
2022-07-29T08:30:33.525Z,36.09
2022-07-29T08:33:01.009Z,36.81
2022-07-29T08:35:32.121Z,36.89
2022-07-29T08:38:14.229Z,35.75
2022-07-29T08:40:41.184Z,35.06
2022-07-29T08:43:09.828Z,34.91
2022-07-29T08:45:50.193Z,35.20
2022-07-29T08:48:19.295Z,35.22
2022-07-29T08:50:47.330Z,34.89
2022-07-29T08:53:17.759Z,34.25
2022-07-29T08:55:46.748Z,35.19
2022-07-29T08:58:15.815Z,35.46
2022-07-29T09:00:45.074Z,35.14
2022-07-29T09:03:16.386Z,35.34
2022-07-29T09:05:47.852Z,35.15
2022-07-29T09:08:16.177Z,35.84
2022-07-29T09:10:43.609Z,35.91
2022-07-29T09:13:10.624Z,36.31
2022-07-29T09:15:37.625Z,35.32
2022-07-29T09:18:04.573Z,35.85
2022-07-29T09:20:51.427Z,36.29
2022-07-29T09:23:23.184Z,36.89
2022-07-29T09:25:51.417Z,37.34
2022-07-29T09:28:19.179Z,36.23
2022-07-29T09:30:57.479Z,36.12
2022-07-29T09:33:25.320Z,36.10
2022-07-29T09:36:07.134Z,35.99
2022-07-29T09:38:34.903Z,36.08
2022-07-29T09:41:05.985Z,36.37
2022-07-29T09:44:25.918Z,36.43
2022-07-29T09:47:08.231Z,36.87
2022-07-29T09:49:37.277Z,36.32
2022-07-29T09:52:09.771Z,35.63
2022-07-29T09:54:40.212Z,36.51
2022-07-29T09:57:13.737Z,37.42
2022-07-29T09:59:49.943Z,36.88
2022-07-29T10:02:23.558Z,37.66
2022-07-29T10:04:51.158Z,37.46
2022-07-29T10:07:18.097Z,36.40
2022-07-29T10:09:55.522Z,36.54
2022-07-29T10:12:23.002Z,36.59
2022-07-29T10:14:50.356Z,36.76
2022-07-29T10:17:24.577Z,36.43
2022-07-29T10:19:51.666Z,36.22
2022-07-29T10:22:36.871Z,36.38
2022-07-29T10:25:05.976Z,37.22
2022-07-29T10:27:33.049Z,37.35
2022-07-29T10:30:00.024Z,36.56
2022-07-29T10:32:43.686Z,37.41
2022-07-29T10:35:26.722Z,38.60
2022-07-29T10:38:21.606Z,37.78
2022-07-29T10:41:23.650Z,37.56
2022-07-29T10:43:52.195Z,38.30
2022-07-29T10:46:19.692Z,37.24
2022-07-29T10:49:06.289Z,37.61
2022-07-29T10:52:06.417Z,36.89
2022-07-29T10:54:48.717Z,38.09
2022-07-29T10:57:53.303Z,37.40
2022-07-29T11:00:29.381Z,36.96
2022-07-29T11:02:59.348Z,37.03
2022-07-29T11:05:32.310Z,37.33
2022-07-29T11:08:19.647Z,37.53
2022-07-29T11:10:48.653Z,37.87
2022-07-29T11:13:46.496Z,37.87
2022-07-29T11:16:16.157Z,37.95
2022-07-29T11:19:14.590Z,37.70
2022-07-29T11:21:54.045Z,36.91
2022-07-29T11:24:35.741Z,37.44
2022-07-29T11:27:18.229Z,37.32
2022-07-29T11:29:55.708Z,37.47
2022-07-29T11:32:29.501Z,37.50
2022-07-29T11:35:36.865Z,36.31
2022-07-29T11:38:23.783Z,36.99
2022-07-29T11:41:22.246Z,37.51
2022-07-29T11:43:55.334Z,36.75
2022-07-29T11:46:48.494Z,36.75
2022-07-29T11:49:22.126Z,36.89
2022-07-29T11:52:03.026Z,36.36
2022-07-29T11:54:57.487Z,36.32
2022-07-29T11:57:36.396Z,35.28
2022-07-29T12:00:09.492Z,35.63
2022-07-29T12:02:43.267Z,35.77
2022-07-29T12:05:14.527Z,35.70
2022-07-29T12:07:47.274Z,36.52
2022-07-29T12:10:19.434Z,35.87
2022-07-29T12:12:54.660Z,36.34
2022-07-29T12:15:22.565Z,36.15
2022-07-29T12:17:50.501Z,35.88
2022-07-29T12:20:28.065Z,35.65
2022-07-29T12:22:56.874Z,37.27
2022-07-29T12:25:33.734Z,36.10
2022-07-29T12:28:03.690Z,35.64
2022-07-29T12:30:41.871Z,35.90
2022-07-29T12:33:29.387Z,35.63
2022-07-29T12:36:06.977Z,35.94
2022-07-29T12:38:36.020Z,36.31
2022-07-29T12:41:04.460Z,36.37
2022-07-29T12:43:31.902Z,36.04
2022-07-29T12:45:59.032Z,36.58
2022-07-29T12:48:39.279Z,36.36
2022-07-29T12:51:07.909Z,36.54
2022-07-29T12:53:36.034Z,36.62
2022-07-29T12:56:20.622Z,37.46
2022-07-29T12:58:53.479Z,37.14
2022-07-29T13:01:21.276Z,38.48
2022-07-29T13:04:01.367Z,38.55
2022-07-29T13:06:45.961Z,37.19
2022-07-29T13:09:15.484Z,37.33
2022-07-29T13:11:48.420Z,37.56
2022-07-29T13:14:39.753Z,37.77
2022-07-29T13:17:14.723Z,36.56
2022-07-29T13:19:46.684Z,37.06
2022-07-29T13:22:20.734Z,37.34
2022-07-29T13:24:54.918Z,37.58
2022-07-29T13:27:24.738Z,38.81
2022-07-29T13:29:57.610Z,38.53
2022-07-29T13:32:28.630Z,37.39
2022-07-29T13:35:01.675Z,37.20
2022-07-29T13:37:35.292Z,38.27
2022-07-29T13:40:04.463Z,38.19
2022-07-29T13:42:32.868Z,38.00
2022-07-29T13:45:00.503Z,38.51
2022-07-29T13:47:32.142Z,38.76
2022-07-29T13:50:08.242Z,39.88
2022-07-29T13:52:35.744Z,39.80
2022-07-29T13:55:03.684Z,40.92
2022-07-29T13:57:31.061Z,39.52
2022-07-29T13:59:58.490Z,39.48
2022-07-29T14:02:26.163Z,37.86
2022-07-29T14:04:54.883Z,38.15
2022-07-29T14:07:22.274Z,37.95
2022-07-29T14:09:49.273Z,38.69
2022-07-29T14:12:16.230Z,38.86
2022-07-29T14:14:43.291Z,38.65
2022-07-29T14:17:10.518Z,38.65
2022-07-29T14:19:39.380Z,39.09
2022-07-29T14:22:07.600Z,39.05
2022-07-29T14:24:37.123Z,39.10
2022-07-29T14:27:07.398Z,39.14
2022-07-29T14:29:37.789Z,39.05
2022-07-29T14:32:10.321Z,38.58
2022-07-29T14:34:38.352Z,37.78
2022-07-29T14:37:06.854Z,38.06
2022-07-29T14:39:39.320Z,37.44
2022-07-29T14:42:09.844Z,37.51
2022-07-29T14:45:01.555Z,37.76
2022-07-29T14:47:28.512Z,37.28
2022-07-29T14:49:55.782Z,37.35
2022-07-29T14:52:22.729Z,37.63
2022-07-29T14:54:49.670Z,37.85
2022-07-29T14:57:17.569Z,38.19
2022-07-29T14:59:44.518Z,38.69
2022-07-29T15:02:11.578Z,38.08
2022-07-29T15:04:40.510Z,36.95
2022-07-29T15:07:07.493Z,37.41
2022-07-29T15:09:36.335Z,36.92
2022-07-29T15:12:07.988Z,37.15
2022-07-29T15:14:34.942Z,37.12
2022-07-29T15:17:02.009Z,36.91
2022-07-29T15:19:31.722Z,37.39
2022-07-29T15:21:59.713Z,37.55
2022-07-29T15:24:27.259Z,37.41
2022-07-29T15:26:54.779Z,37.15
2022-07-29T15:29:21.725Z,37.49
2022-07-29T15:31:48.723Z,37.59
2022-07-29T15:34:15.707Z,36.52
2022-07-29T15:36:52.094Z,36.13
2022-07-29T15:39:20.647Z,36.88
2022-07-29T15:41:47.873Z,37.19
2022-07-29T15:44:14.848Z,37.52
2022-07-29T15:47:01.264Z,37.90
2022-07-29T15:49:46.352Z,38.05
2022-07-29T15:52:14.003Z,37.84
2022-07-29T15:54:44.058Z,37.27
2022-07-29T15:57:10.956Z,37.91
2022-07-29T15:59:37.892Z,38.61
2022-07-29T16:02:05.442Z,38.34
2022-07-29T16:04:32.760Z,37.90
2022-07-29T16:07:00.181Z,36.94
2022-07-29T16:09:27.997Z,37.84
2022-07-29T16:11:56.395Z,37.92
2022-07-29T16:14:23.411Z,37.31
2022-07-29T16:16:50.490Z,37.49
2022-07-29T16:19:17.523Z,37.15
2022-07-29T16:21:44.464Z,37.68
2022-07-29T16:24:11.426Z,38.09
2022-07-29T16:26:38.348Z,37.53
2022-07-29T16:29:05.670Z,37.42
2022-07-29T16:31:32.691Z,37.48
2022-07-29T16:34:00.950Z,36.72
2022-07-29T16:36:27.902Z,36.95
2022-07-29T16:38:54.867Z,38.27
2022-07-29T16:41:21.792Z,38.05
2022-07-29T16:43:48.763Z,37.98
2022-07-29T16:46:18.952Z,38.51
2022-07-29T16:48:46.566Z,38.69
2022-07-29T16:51:14.398Z,38.76
2022-07-29T16:53:41.958Z,38.75
2022-07-29T16:56:12.669Z,38.89
2022-07-29T16:58:43.606Z,38.46
2022-07-29T17:01:11.197Z,39.04
2022-07-29T17:04:00.203Z,39.89
2022-07-29T17:06:29.554Z,39.11
2022-07-29T17:08:57.193Z,39.15
2022-07-29T17:11:52.942Z,39.02
2022-07-29T17:14:11.538Z,39.15
2022-07-29T17:16:38.576Z,38.65
2022-07-29T17:19:05.652Z,38.88
2022-07-29T17:21:32.583Z,39.09
2022-07-29T17:23:59.667Z,39.00
2022-07-29T17:26:28.091Z,38.92
2022-07-29T17:28:55.794Z,39.05
2022-07-29T17:31:23.627Z,38.79
2022-07-29T17:33:50.694Z,38.64
2022-07-29T17:36:29.751Z,38.54
2022-07-29T17:39:05.051Z,38.10
2022-07-29T17:41:31.964Z,38.10
2022-07-29T17:43:59.133Z,37.88
2022-07-29T17:46:27.543Z,37.83
2022-07-29T17:48:56.079Z,38.14
2022-07-29T17:51:24.118Z,38.79
2022-07-29T17:53:51.382Z,37.94
2022-07-29T17:56:18.502Z,38.00
2022-07-29T17:58:47.549Z,38.15
2022-07-29T18:01:15.250Z,37.99
2022-07-29T18:03:43.083Z,37.82
2022-07-29T18:06:13.077Z,38.09
2022-07-29T18:08:40.273Z,38.10
2022-07-29T18:11:07.266Z,38.58
2022-07-29T18:13:34.298Z,38.33
2022-07-29T18:16:01.342Z,38.32
2022-07-29T18:18:28.699Z,38.04
2022-07-29T18:20:55.928Z,37.52
2022-07-29T18:23:22.920Z,36.81
2022-07-29T18:25:49.885Z,36.40
2022-07-29T18:28:16.886Z,35.69
2022-07-29T18:30:45.173Z,35.45
2022-07-29T18:33:21.385Z,36.48
2022-07-29T18:35:51.432Z,36.19
2022-07-29T18:38:18.416Z,36.18
2022-07-29T18:40:46.179Z,36.17
2022-07-29T18:43:13.826Z,35.80
2022-07-29T18:45:42.478Z,35.52
2022-07-29T18:48:13.004Z,35.86
2022-07-29T18:50:41.798Z,35.21
2022-07-29T18:53:08.859Z,34.90
2022-07-29T18:55:35.784Z,34.57
2022-07-29T18:58:03.367Z,33.80
2022-07-29T19:00:30.742Z,33.65
2022-07-29T19:02:57.874Z,33.02
2022-07-29T19:05:25.334Z,33.54
2022-07-29T19:07:52.384Z,32.41
2022-07-29T19:10:19.301Z,31.47
2022-07-29T19:12:46.227Z,32.24
2022-07-29T19:15:19.902Z,32.18
2022-07-29T19:17:48.164Z,31.60
2022-07-29T19:20:15.797Z,30.90
2022-07-29T19:22:42.746Z,30.39
2022-07-29T19:25:10.245Z,31.38
2022-07-29T19:27:37.278Z,33.05
2022-07-29T19:30:06.609Z,33.35
2022-07-29T19:32:33.651Z,32.59
2022-07-29T19:35:19.025Z,32.14
2022-07-29T19:37:45.951Z,31.75
2022-07-29T19:40:13.346Z,31.49
2022-07-29T19:42:40.344Z,32.45
2022-07-29T19:45:07.709Z,32.14
2022-07-29T19:47:34.677Z,32.58
2022-07-29T19:50:02.030Z,32.86
2022-07-29T19:52:29.004Z,32.45
2022-07-29T19:54:55.968Z,32.19
2022-07-29T19:57:23.048Z,31.78
2022-07-29T19:59:51.238Z,29.93
2022-07-29T20:02:18.476Z,28.86
2022-07-29T20:04:45.562Z,28.56
2022-07-29T20:07:13.722Z,27.85
2022-07-29T20:09:41.135Z,27.26
2022-07-29T20:12:11.532Z,27.50
2022-07-29T20:14:38.508Z,27.47
2022-07-29T20:17:05.968Z,26.96
2022-07-29T20:19:33.428Z,27.49
2022-07-29T20:22:00.799Z,27.99
2022-07-29T20:24:27.712Z,28.57
2022-07-29T20:26:54.678Z,29.53
2022-07-29T20:29:21.969Z,29.20
2022-07-29T20:31:53.497Z,28.03
2022-07-29T20:34:23.695Z,27.79
2022-07-29T20:36:50.738Z,27.41
2022-07-29T20:39:17.671Z,28.46
2022-07-29T20:41:44.755Z,29.34
2022-07-29T20:44:11.742Z,29.95
2022-07-29T20:46:39.569Z,29.28
2022-07-29T20:49:06.914Z,29.06
2022-07-29T20:51:43.949Z,28.88
2022-07-29T20:54:13.360Z,30.21
2022-07-29T20:56:41.561Z,30.71
2022-07-29T20:59:09.201Z,31.49
2022-07-29T21:01:36.370Z,32.23
2022-07-29T21:04:03.702Z,31.54
2022-07-29T21:06:30.841Z,32.05
2022-07-29T21:08:59.792Z,32.31
2022-07-29T21:11:43.148Z,31.75
2022-07-29T21:14:34.994Z,31.82
2022-07-29T21:17:02.403Z,31.67
2022-07-29T21:19:29.597Z,31.67
2022-07-29T21:21:56.509Z,31.73
2022-07-29T21:24:23.459Z,31.33
2022-07-29T21:27:11.032Z,31.60
2022-07-29T21:29:37.146Z,31.51
2022-07-29T21:32:04.381Z,32.51
2022-07-29T21:34:31.404Z,31.78
2022-07-29T21:36:58.370Z,31.42
2022-07-29T21:39:25.316Z,31.59
2022-07-29T21:41:52.226Z,32.51
2022-07-29T21:44:21.177Z,32.90
2022-07-29T21:46:48.417Z,32.20
2022-07-29T21:49:15.407Z,31.92
2022-07-29T21:51:42.473Z,31.00
2022-07-29T21:54:09.442Z,31.79
2022-07-29T21:56:37.143Z,31.22
2022-07-29T21:59:04.120Z,31.95
2022-07-29T22:01:39.383Z,31.61
2022-07-29T22:04:06.869Z,31.58
2022-07-29T22:06:34.743Z,31.10
2022-07-29T22:09:01.649Z,30.94
2022-07-29T22:11:28.811Z,30.85
2022-07-29T22:13:55.774Z,30.37
2022-07-29T22:16:22.782Z,30.56
2022-07-29T22:18:49.752Z,30.13
2022-07-29T22:21:16.665Z,30.14
2022-07-29T22:23:43.774Z,30.61
2022-07-29T22:26:10.707Z,30.73
2022-07-29T22:28:37.702Z,30.73
2022-07-29T22:31:05.173Z,30.68
2022-07-29T22:33:32.133Z,31.05
2022-07-29T22:35:59.064Z,30.69
2022-07-29T22:38:25.994Z,30.91
2022-07-29T22:40:52.952Z,30.39
2022-07-29T22:43:20.057Z,30.51
2022-07-29T22:45:47.230Z,30.86
2022-07-29T22:48:14.270Z,30.94
2022-07-29T22:50:41.904Z,30.96
2022-07-29T22:53:08.839Z,30.47
2022-07-29T22:55:35.764Z,31.23
2022-07-29T22:58:02.716Z,31.27
2022-07-29T23:00:29.744Z,31.43
2022-07-29T23:02:56.631Z,31.20
2022-07-29T23:05:23.630Z,31.40
2022-07-29T23:07:50.694Z,30.86
2022-07-29T23:10:17.600Z,30.30
2022-07-29T23:12:44.544Z,29.63
2022-07-29T23:15:11.616Z,29.88
2022-07-29T23:17:38.528Z,31.34
2022-07-29T23:20:09.912Z,31.28
2022-07-29T23:22:37.014Z,31.40
2022-07-29T23:25:05.098Z,30.87
2022-07-29T23:27:32.268Z,31.39
2022-07-29T23:29:59.350Z,31.47
2022-07-29T23:32:26.272Z,31.51
2022-07-29T23:34:53.221Z,31.17
2022-07-29T23:37:20.181Z,31.78
2022-07-29T23:39:47.088Z,31.23
2022-07-29T23:42:14.025Z,30.78
2022-07-29T23:44:40.983Z,31.24
2022-07-29T23:47:07.917Z,30.84
2022-07-29T23:49:34.972Z,31.29
2022-07-29T23:52:02.004Z,30.99
2022-07-29T23:54:28.921Z,31.07
2022-07-29T23:56:58.040Z,31.47
2022-07-29T23:59:25.400Z,30.89
